Dallas, Iowa
Current Conditions -  °F | °C
As of 12:15 PM on Thursday 27 Nov 2014 (Local Time) from KOXV Reporting Station
Clear Clear  
Wind Chill: -3°   Ceiling: Unl
Heat Index: 10°   Visibility: 10mi
Dew Point: -2°   Wind: 10mph
Humidity: 57%   Direction: 300°WNW
Pressure: 30.51"   Gusts: NA
Location:  41.23°N, 93.24°W
Report Text: KOXV 271815Z AUTO 30009KT 10SM CLR M12/M19 A3051 RMK AO2
Loading
Personal Weather Stations






























Interactive Weather Map New forecast layout! Learn more

10-Day Weather Forecast

Advertisements
Track Severe Weather on mobile